Share

McCarthy, AK

1:55 AM AKDT on April 25, 2014 (GMT -0800)
RAWS MAY CREEK AK US (MMCKA2) Elev 1579 ft | 61.35 °N, 142.71 °W | Change Station

Current weather conditions updated 59 minutes ago

Clear
Clear
34 °F
Feels Like 34 °F
N
0
Wind Variable Wind from North
Gusts 2.0 mph
Sunrise 5:38 AM
Sunset 9:22 PM
Moon Waning Crescent

Today is forecast to be Cooler than yesterday.

Pressure 29.66 in
Visibility 10.0 miles
Clouds Clear
Windchill 34 °F
Dew Point 25 °F
Humidity 69%
Rainfall 0.00 in
Snow Depth Not available.
UV 0 out of 16
Pollen Not available.
Air Quality Not available.
Flu Activity Sporadic
METAR PAGK 250853Z AUTO 15009KT 10SM CLR 01/M04 A2961 RMK AO2 SLP044 T00061044 401061056 51011 TSNO $

More Conditions Fewer Conditions

Pressure 29.66 in
Visibility 10.0 miles
Clouds Clear
Windchill 34 °F
Dew Point 25 °F
Humidity 69%
Rainfall 0.00 in
Snow Depth Not available.
UV 0 out of 16
Pollen Not available.
Air Quality Not available.
Flu Activity Sporadic
METAR PAGK 250853Z AUTO 15009KT 10SM CLR 01/M04 A2961 RMK AO2 SLP044 T00061044 401061056 51011 TSNO $

More Conditions Fewer Conditions

10-Day Weather Forecast

Almanac

Astronomy

Apr. 25, 2014 Rise Set
Actual Time 5:38 AM AKDT 9:22 PM AKDT
Civil Twilight 4:45 AM AKDT 10:16 PM AKDT
Nautical Twilight 3:23 AM AKDT 11:40 PM AKDT
Astronomical Twilight 2:02 AM AKDT Sun does not rise
Moon 4:40 AM AKDT 4:54 PM AKDT
Length of Visible Light 17h 31m
Length of Day
15h 43m
Tomorrow will be 5m 41s longer.
Waning Crescent, 17% of the Moon is Illuminated
Today
Waning Crescent
Apr 29
New
May 6
First Quarter
May 14
Full
May 21
Last Quarter

Today's Extremes

State Highs State Lows

Community

  • Storm Clouds & Sunset
    Storm Clouds & Sunset
  • Deer in evening light
    Deer in evening light
  • Critter
    Critter
  • Jone Runs Falls
    Jone Runs Falls
  • Easter in Shenandoah National Park
    Easter in Shenandoah National Park

WunderPhotos

Upload Photos

1,704,876 photos uploaded!

WunderBlogs® & News

Nearby

Snow Depth

Station Depth Elevation
Upper Tsaina River 49 in 1750 ft
Moraine 5 in 2100 ft
Granite Creek 0 in 1240 ft
Grandview 33 in 1100 ft
Turnagain Pass 50 in 1880 ft

Coastal Water Temperatures

Place Temperature
No Stations Reporting

Earthquake Activity

City Distance Mag. Time & Date
No recent earthquake activity has been reported nearby.
Minimum magnitude displayed is 2.5.

Nearby Weather Stations

Station Location Temp. Windchill Dew Point Humidity Wind Precip. Elev Updated Type
RAWS MAY CREEK AK, Chitina, AK 34 °F 34 °F 25 °F 69% North  at  0 mph 0.00 in / hr 1579 ft 12:56 AM AKDT MADIS
MesoWest MAY CREEK , Chitina, AK 38 °F 38 °F - - North  at  - 0.00 in / hr 1610 ft 12:00 AM AKDT MADIS
RAWS GATES GLACIER AK, Chitina, AK 26 °F 26 °F 25 °F 96% West  at  3 mph 0.00 in / hr 4060 ft 1:33 AM AKDT MADIS

Show More Stations Show Fewer Stations

What do you think?

We're not finished. Please let us know what you like, what you don't like, and what you are still missing.